Time;durP1;ratioP1;P1;durP2;ratioP2;P2;SDS_P1;SDS_P2;PMS_P1;PMS_P2;Temp;Humidity;BMP_temperature;BMP_pressure;BME280_temperature;BME280_humidity;BME280_pressure;Samples;Min_cycle;Max_cycle;Signal;HPM_P1;HPM_P2
2023/06/01 00:01:04;;;;;;;16.38;5.35;;;;;;;;;;5065208;28;20068;-83
2023/06/01 00:03:30;;;;;;;11.55;5.25;;;;;;;;;;5018975;28;20033;-83
2023/06/01 00:05:56;;;;;;;12.75;5.32;;;;;;;;;;5018356;28;20045;-83
2023/06/01 00:08:22;;;;;;;15.38;5.97;;;;;;;;;;5042724;28;20109;-84
2023/06/01 00:10:49;;;;;;;16.25;5.38;;;;;;;;;;5040594;28;20048;-83
2023/06/01 00:13:15;;;;;;;10.30;4.97;;;;;;;;;;5050935;28;20056;-84
2023/06/01 00:15:43;;;;;;;13.02;5.22;;;;;;;;;;5038277;28;20068;-83
2023/06/01 00:18:12;;;;;;;14.13;5.88;;;;;;;;;;5055449;28;20120;-83
2023/06/01 00:20:39;;;;;;;9.57;5.70;;;;;;;;;;5056093;28;20053;-83
2023/06/01 00:23:06;;;;;;;22.23;7.32;;;;;;;;;;5056268;28;20148;-84
2023/06/01 00:25:32;;;;;;;13.88;6.07;;;;;;;;;;5056151;28;20071;-84
2023/06/01 00:27:58;;;;;;;17.75;6.05;;;;;;;;;;5055923;28;20045;-84
2023/06/01 00:30:24;;;;;;;14.75;6.18;;;;;;;;;;5055635;28;20127;-84
2023/06/01 00:32:51;;;;;;;12.60;6.22;;;;;;;;;;5039660;28;20076;-85
2023/06/01 00:35:17;;;;;;;16.70;6.13;;;;;;;;;;5056236;28;20076;-84
2023/06/01 00:37:43;;;;;;;12.38;6.03;;;;;;;;;;5039777;28;20052;-84
2023/06/01 00:40:09;;;;;;;15.98;6.43;;;;;;;;;;5057227;28;20037;-84
2023/06/01 00:42:35;;;;;;;15.18;5.97;;;;;;;;;;5039198;28;20118;-84
2023/06/01 00:45:02;;;;;;;14.20;6.95;;;;;;;;;;5039276;28;20044;-84
2023/06/01 00:47:28;;;;;;;13.30;6.10;;;;;;;;;;5056801;28;20036;-84
2023/06/01 00:49:54;;;;;;;16.00;6.53;;;;;;;;;;5055302;28;20097;-83
2023/06/01 00:52:21;;;;;;;12.82;6.13;;;;;;;;;;5040857;28;20044;-84
2023/06/01 00:54:47;;;;;;;13.70;6.57;;;;;;;;;;5062978;28;20388;-84
2023/06/01 00:57:14;;;;;;;16.48;6.22;;;;;;;;;;5041506;28;20036;-84
2023/06/01 00:59:40;;;;;;;12.13;5.78;;;;;;;;;;5054742;28;20048;-84
2023/06/01 01:02:08;;;;;;;16.30;6.10;;;;;;;;;;5055060;28;20489;-84
2023/06/01 01:04:34;;;;;;;11.30;5.40;;;;;;;;;;5054612;28;20045;-84
2023/06/01 01:07:06;;;;;;;11.85;5.30;;;;;;;;;;5037599;28;20036;-84
2023/06/01 01:09:32;;;;;;;13.27;5.43;;;;;;;;;;5054320;28;20041;-83
2023/06/01 01:12:01;;;;;;;15.88;5.22;;;;;;;;;;5037917;28;20163;-84
2023/06/01 01:14:50;;;;;;;12.65;5.53;;;;;;;;;;5054273;28;20082;-84
2023/06/01 01:17:24;;;;;;;14.88;5.50;;;;;;;;;;5054066;28;20041;-84
2023/06/01 01:19:57;;;;;;;12.25;4.93;;;;;;;;;;5054577;28;20481;-84
2023/06/01 01:22:34;;;;;;;13.57;5.25;;;;;;;;;;5037571;28;20124;-84
2023/06/01 01:25:19;;;;;;;15.52;5.95;;;;;;;;;;5054029;28;20627;-83
2023/06/01 01:28:04;;;;;;;16.23;5.32;;;;;;;;;;5053971;28;20103;-84
2023/06/01 01:30:30;;;;;;;15.55;5.53;;;;;;;;;;5042278;28;20073;-84
2023/06/01 01:32:58;;;;;;;13.45;5.40;;;;;;;;;;5053889;28;20041;-84
2023/06/01 01:35:25;;;;;;;13.93;5.68;;;;;;;;;;5036704;28;20060;-89
2023/06/01 01:37:51;;;;;;;15.65;5.60;;;;;;;;;;5053020;28;20041;-89
2023/06/01 01:40:18;;;;;;;12.90;5.70;;;;;;;;;;5036605;28;20120;-90
2023/06/01 01:42:44;;;;;;;15.38;5.68;;;;;;;;;;5053601;28;20497;-89
2023/06/01 01:45:10;;;;;;;12.27;5.82;;;;;;;;;;5053302;28;20138;-89
2023/06/01 01:47:58;;;;;;;12.18;5.85;;;;;;;;;;5036482;28;20053;-90
2023/06/01 01:50:26;;;;;;;13.60;5.90;;;;;;;;;;5053149;28;20033;-89
2023/06/01 01:52:54;;;;;;;12.77;6.15;;;;;;;;;;5053487;28;20055;-90
2023/06/01 01:55:23;;;;;;;15.27;6.10;;;;;;;;;;5065793;28;20119;-88
2023/06/01 01:57:51;;;;;;;14.60;6.00;;;;;;;;;;5053748;28;20064;-89
2023/06/01 02:00:18;;;;;;;15.75;5.70;;;;;;;;;;5052755;28;20044;-89
2023/06/01 02:02:53;;;;;;;14.57;6.07;;;;;;;;;;5050124;28;20513;-89
2023/06/01 02:05:19;;;;;;;14.30;5.90;;;;;;;;;;5067940;28;20033;-89
2023/06/01 02:07:46;;;;;;;13.80;5.78;;;;;;;;;;5055202;28;20041;-88
2023/06/01 02:10:12;;;;;;;13.60;5.30;;;;;;;;;;5052977;28;20045;-88
2023/06/01 02:12:42;;;;;;;12.20;5.88;;;;;;;;;;5037347;28;20041;-90
2023/06/01 02:15:11;;;;;;;17.00;5.78;;;;;;;;;;5053970;28;20091;-88
2023/06/01 02:17:38;;;;;;;14.80;5.85;;;;;;;;;;5055544;28;20037;-90
2023/06/01 02:20:11;;;;;;;14.25;5.30;;;;;;;;;;5053100;28;20212;-90
2023/06/01 02:22:45;;;;;;;16.17;5.78;;;;;;;;;;5056087;28;20072;-90
2023/06/01 02:25:21;;;;;;;13.20;5.40;;;;;;;;;;5073110;28;20535;-90
2023/06/01 02:27:54;;;;;;;14.13;5.07;;;;;;;;;;5055459;28;20501;-90
2023/06/01 02:30:28;;;;;;;13.10;5.43;;;;;;;;;;5050848;28;20132;-89
2023/06/01 02:32:58;;;;;;;14.27;5.13;;;;;;;;;;5050192;28;20115;-91
2023/06/01 02:35:25;;;;;;;9.68;4.82;;;;;;;;;;5054808;28;20452;-90
2023/06/01 02:37:55;;;;;;;12.60;5.43;;;;;;;;;;5051888;28;20088;-90
2023/06/01 02:40:21;;;;;;;12.70;5.50;;;;;;;;;;5035502;28;20037;-87
2023/06/01 02:42:49;;;;;;;13.98;5.65;;;;;;;;;;5069393;28;20037;-89
2023/06/01 02:45:16;;;;;;;14.75;5.75;;;;;;;;;;5038976;28;20051;-88
2023/06/01 02:47:44;;;;;;;10.98;5.55;;;;;;;;;;5061133;28;20404;-88
2023/06/01 02:50:13;;;;;;;15.55;5.72;;;;;;;;;;5041645;28;20375;-89
2023/06/01 02:52:41;;;;;;;14.07;6.22;;;;;;;;;;5068017;28;20045;-84
2023/06/01 02:55:08;;;;;;;16.48;6.68;;;;;;;;;;5055485;28;20047;-82
2023/06/01 02:57:34;;;;;;;14.02;6.13;;;;;;;;;;5067990;28;20029;-83
2023/06/01 03:00:00;;;;;;;15.23;6.40;;;;;;;;;;5035829;28;20040;-83
2023/06/01 03:02:27;;;;;;;19.50;6.80;;;;;;;;;;5037563;28;20076;-83
2023/06/01 03:04:54;;;;;;;19.50;7.00;;;;;;;;;;5052396;28;20092;-84
2023/06/01 03:07:20;;;;;;;15.80;6.53;;;;;;;;;;5055078;28;20497;-83
2023/06/01 03:09:46;;;;;;;17.92;7.10;;;;;;;;;;5042328;28;20036;-83
2023/06/01 03:12:12;;;;;;;15.85;6.78;;;;;;;;;;5071052;28;20048;-83
2023/06/01 03:14:38;;;;;;;17.50;6.40;;;;;;;;;;5035265;28;20037;-83
2023/06/01 03:17:05;;;;;;;17.63;6.88;;;;;;;;;;5051897;28;20045;-83
2023/06/01 03:19:31;;;;;;;14.60;6.53;;;;;;;;;;5066262;28;20045;-83
2023/06/01 03:21:57;;;;;;;13.75;6.63;;;;;;;;;;5071203;28;20078;-83
2023/06/01 03:24:26;;;;;;;13.25;6.82;;;;;;;;;;5058612;28;20033;-83
2023/06/01 03:26:52;;;;;;;18.40;7.35;;;;;;;;;;5071820;28;20040;-83
2023/06/01 03:29:18;;;;;;;12.82;6.20;;;;;;;;;;5050830;28;20039;-83
2023/06/01 03:31:44;;;;;;;14.52;5.55;;;;;;;;;;5044018;28;20045;-83
2023/06/01 03:34:10;;;;;;;14.98;5.63;;;;;;;;;;5051240;28;20071;-84
2023/06/01 03:36:36;;;;;;;12.98;5.60;;;;;;;;;;5060289;28;20060;-83
2023/06/01 03:39:07;;;;;;;15.38;4.85;;;;;;;;;;5041288;28;20384;-88
2023/06/01 03:41:34;;;;;;;13.10;5.10;;;;;;;;;;5059090;28;20054;-88
2023/06/01 03:44:00;;;;;;;16.80;6.20;;;;;;;;;;5057033;28;20040;-88
2023/06/01 03:46:26;;;;;;;13.63;5.32;;;;;;;;;;5034847;28;20124;-88
2023/06/01 03:48:52;;;;;;;12.95;5.53;;;;;;;;;;5034489;28;20455;-88
2023/06/01 03:51:18;;;;;;;13.38;6.60;;;;;;;;;;5052492;28;20406;-89
2023/06/01 03:53:44;;;;;;;12.23;5.28;;;;;;;;;;5044084;28;20044;-88
2023/06/01 03:56:11;;;;;;;11.55;5.00;;;;;;;;;;5056609;28;20040;-88
2023/06/01 03:58:37;;;;;;;13.70;5.50;;;;;;;;;;5070661;28;20059;-90
2023/06/01 04:01:05;;;;;;;14.05;5.72;;;;;;;;;;5057262;28;20034;-89
2023/06/01 04:03:31;;;;;;;9.02;5.20;;;;;;;;;;5050382;28;20052;-88
2023/06/01 04:06:01;;;;;;;12.52;5.45;;;;;;;;;;5049308;28;20041;-88
2023/06/01 04:08:27;;;;;;;12.68;6.25;;;;;;;;;;5051314;28;20088;-88
2023/06/01 04:10:53;;;;;;;14.27;6.20;;;;;;;;;;5054785;28;20131;-88
2023/06/01 04:13:20;;;;;;;10.75;6.07;;;;;;;;;;5054953;28;20083;-88
2023/06/01 04:15:46;;;;;;;13.25;5.68;;;;;;;;;;5052946;28;20072;-88
2023/06/01 04:18:13;;;;;;;11.77;5.55;;;;;;;;;;5051115;28;20048;-88
2023/06/01 04:20:39;;;;;;;13.13;5.43;;;;;;;;;;5050620;28;20120;-88
2023/06/01 04:23:05;;;;;;;14.63;5.80;;;;;;;;;;5057289;28;20106;-88
2023/06/01 04:25:31;;;;;;;10.48;5.22;;;;;;;;;;5068012;28;20559;-88
2023/06/01 04:27:58;;;;;;;12.02;6.07;;;;;;;;;;5050878;28;20048;-88
2023/06/01 04:30:24;;;;;;;14.57;5.70;;;;;;;;;;5034285;28;20052;-88
2023/06/01 04:32:51;;;;;;;14.00;5.72;;;;;;;;;;5052655;28;20048;-88
2023/06/01 04:35:17;;;;;;;11.32;4.90;;;;;;;;;;5051942;28;20094;-88
2023/06/01 04:37:44;;;;;;;12.30;5.65;;;;;;;;;;5050886;28;20045;-88
2023/06/01 04:40:12;;;;;;;12.07;4.70;;;;;;;;;;5050754;28;20486;-88
2023/06/01 04:42:40;;;;;;;10.88;3.83;;;;;;;;;;5047369;28;20048;-88
2023/06/01 04:45:07;;;;;;;11.55;4.55;;;;;;;;;;5050815;28;20041;-89
2023/06/01 04:47:37;;;;;;;9.02;3.90;;;;;;;;;;5067201;28;20059;-89
2023/06/01 04:50:10;;;;;;;7.43;4.45;;;;;;;;;;5024613;28;20052;-88
2023/06/01 04:52:40;;;;;;;8.15;3.78;;;;;;;;;;5051708;28;20120;-89
2023/06/01 04:55:06;;;;;;;9.07;4.15;;;;;;;;;;5043149;28;20037;-88
2023/06/01 04:57:33;;;;;;;11.05;4.22;;;;;;;;;;5034161;28;20516;-88
2023/06/01 05:00:00;;;;;;;11.32;4.30;;;;;;;;;;5050256;28;20048;-89
2023/06/01 05:02:26;;;;;;;9.18;3.60;;;;;;;;;;5054698;28;20044;-90
2023/06/01 05:04:52;;;;;;;11.25;3.80;;;;;;;;;;5056902;28;20044;-89
2023/06/01 05:07:21;;;;;;;9.80;3.78;;;;;;;;;;5041123;28;20036;-89
2023/06/01 05:09:47;;;;;;;7.57;3.50;;;;;;;;;;5042868;28;20045;-89
2023/06/01 05:12:13;;;;;;;11.45;4.28;;;;;;;;;;5066750;28;20103;-89
2023/06/01 05:14:39;;;;;;;9.02;3.70;;;;;;;;;;5048164;28;20416;-89
2023/06/01 05:17:06;;;;;;;9.38;4.20;;;;;;;;;;5073580;28;20082;-84
2023/06/01 05:19:32;;;;;;;9.70;4.72;;;;;;;;;;5067190;28;20091;-84
2023/06/01 05:21:58;;;;;;;10.25;4.38;;;;;;;;;;5071673;28;20047;-83
2023/06/01 05:24:24;;;;;;;13.02;4.13;;;;;;;;;;5071866;28;20048;-83
2023/06/01 05:26:50;;;;;;;11.10;4.25;;;;;;;;;;5053885;28;20098;-83
2023/06/01 05:29:16;;;;;;;11.05;4.05;;;;;;;;;;5061495;28;20036;-83
2023/06/01 05:31:42;;;;;;;8.52;3.92;;;;;;;;;;5037475;28;20036;-83
2023/06/01 05:34:08;;;;;;;13.60;4.45;;;;;;;;;;5042675;28;20044;-88
2023/06/01 05:36:35;;;;;;;10.00;3.92;;;;;;;;;;5068921;28;20061;-89
2023/06/01 05:39:01;;;;;;;9.38;4.05;;;;;;;;;;5022967;28;20516;-90
2023/06/01 05:41:27;;;;;;;10.55;4.40;;;;;;;;;;5063052;28;20044;-89
2023/06/01 05:43:53;;;;;;;10.75;4.03;;;;;;;;;;5056713;28;20045;-88
2023/06/01 05:46:20;;;;;;;8.68;3.88;;;;;;;;;;5072748;28;20044;-89
2023/06/01 05:48:46;;;;;;;12.02;4.72;;;;;;;;;;5058861;28;20049;-88
2023/06/01 05:51:12;;;;;;;10.38;4.05;;;;;;;;;;5053265;28;20432;-90
2023/06/01 05:53:38;;;;;;;9.90;4.18;;;;;;;;;;5066121;28;20048;-90
2023/06/01 05:56:04;;;;;;;12.40;3.80;;;;;;;;;;5071745;28;20127;-88
2023/06/01 05:58:30;;;;;;;11.82;3.90;;;;;;;;;;5073672;28;20044;-89
2023/06/01 06:00:57;;;;;;;10.20;3.53;;;;;;;;;;5039650;28;20044;-89
2023/06/01 06:03:23;;;;;;;9.88;3.78;;;;;;;;;;5053630;28;20037;-88
2023/06/01 06:05:49;;;;;;;9.43;3.40;;;;;;;;;;5063437;28;20052;-90
2023/06/01 06:08:15;;;;;;;10.93;3.63;;;;;;;;;;5058276;28;20049;-89
2023/06/01 06:10:41;;;;;;;9.70;3.35;;;;;;;;;;5072259;28;20037;-89
2023/06/01 06:13:08;;;;;;;7.72;3.30;;;;;;;;;;5042067;28;20406;-89
2023/06/01 06:15:34;;;;;;;10.95;4.10;;;;;;;;;;5073301;28;20062;-90
2023/06/01 06:18:00;;;;;;;13.02;3.58;;;;;;;;;;5060949;28;20037;-89
2023/06/01 06:20:26;;;;;;;9.02;3.65;;;;;;;;;;5052914;28;20045;-89
2023/06/01 06:22:53;;;;;;;10.95;3.70;;;;;;;;;;5053182;28;20549;-90
2023/06/01 06:25:19;;;;;;;7.90;3.42;;;;;;;;;;5053291;28;20105;-88
2023/06/01 06:27:46;;;;;;;12.73;3.58;;;;;;;;;;5065622;28;20049;-89
2023/06/01 06:30:12;;;;;;;7.10;3.50;;;;;;;;;;5057898;28;20040;-89
2023/06/01 06:32:38;;;;;;;8.68;3.72;;;;;;;;;;5063269;28;20043;-90
2023/06/01 06:35:04;;;;;;;10.07;3.88;;;;;;;;;;5061415;28;20045;-89
2023/06/01 06:37:32;;;;;;;10.02;4.05;;;;;;;;;;5059729;28;20394;-88
2023/06/01 06:39:58;;;;;;;10.70;4.10;;;;;;;;;;5060658;28;20049;-89
2023/06/01 06:42:25;;;;;;;9.93;3.90;;;;;;;;;;5053819;28;20032;-89
2023/06/01 06:44:51;;;;;;;9.48;3.70;;;;;;;;;;5062692;28;20048;-90
2023/06/01 06:47:19;;;;;;;8.85;4.05;;;;;;;;;;5054905;28;20092;-89
2023/06/01 06:49:46;;;;;;;8.80;3.70;;;;;;;;;;5062089;28;20123;-89
2023/06/01 06:52:12;;;;;;;8.30;3.70;;;;;;;;;;5056902;28;20440;-89
2023/06/01 06:54:41;;;;;;;11.18;3.97;;;;;;;;;;5066061;28;20402;-89
2023/06/01 06:57:08;;;;;;;10.60;4.00;;;;;;;;;;5047626;28;20034;-91
2023/06/01 06:59:34;;;;;;;10.02;4.30;;;;;;;;;;5089577;28;20450;-88
2023/06/01 07:02:00;;;;;;;12.70;4.20;;;;;;;;;;5047735;28;20036;-90
2023/06/01 07:04:28;;;;;;;8.73;4.40;;;;;;;;;;5065218;28;20051;-89
2023/06/01 07:06:54;;;;;;;8.02;4.03;;;;;;;;;;5052258;28;20041;-83
2023/06/01 07:09:21;;;;;;;12.05;3.92;;;;;;;;;;5051941;28;20048;-89
2023/06/01 07:11:47;;;;;;;9.95;3.97;;;;;;;;;;5070670;28;20045;-89
2023/06/01 07:14:14;;;;;;;10.93;4.15;;;;;;;;;;5054778;28;20048;-89
2023/06/01 07:16:40;;;;;;;14.95;4.13;;;;;;;;;;5068190;28;20547;-89
2023/06/01 07:19:07;;;;;;;9.43;4.05;;;;;;;;;;5059613;28;20098;-89
2023/06/01 07:21:33;;;;;;;11.60;3.60;;;;;;;;;;5057704;28;20440;-89
2023/06/01 07:23:59;;;;;;;9.57;3.60;;;;;;;;;;5057414;28;20040;-89
2023/06/01 07:26:28;;;;;;;10.27;3.72;;;;;;;;;;5047271;28;20098;-89
2023/06/01 07:28:56;;;;;;;10.55;3.45;;;;;;;;;;5056084;28;20048;-89
2023/06/01 07:31:22;;;;;;;9.32;3.50;;;;;;;;;;5038915;28;20107;-89
2023/06/01 07:33:48;;;;;;;9.13;3.70;;;;;;;;;;5040624;28;20036;-90
2023/06/01 07:36:15;;;;;;;8.25;3.30;;;;;;;;;;5061794;28;20144;-90
2023/06/01 07:38:41;;;;;;;9.35;3.05;;;;;;;;;;5052267;28;20049;-89
2023/06/01 07:41:10;;;;;;;9.73;3.13;;;;;;;;;;5070913;28;20044;-89
2023/06/01 07:43:38;;;;;;;8.80;3.25;;;;;;;;;;5058499;28;20507;-89
2023/06/01 07:46:04;;;;;;;7.97;3.55;;;;;;;;;;5048710;28;20413;-90
2023/06/01 07:48:35;;;;;;;10.70;3.33;;;;;;;;;;5034670;28;20138;-89
2023/06/01 07:51:02;;;;;;;11.40;3.28;;;;;;;;;;5025313;28;20161;-90
2023/06/01 07:53:28;;;;;;;7.32;3.13;;;;;;;;;;5062622;28;20067;-88
2023/06/01 07:55:55;;;;;;;8.48;3.25;;;;;;;;;;5065246;28;20486;-90
2023/06/01 07:58:21;;;;;;;9.32;3.03;;;;;;;;;;5061937;28;20048;-89
2023/06/01 08:00:48;;;;;;;10.60;3.40;;;;;;;;;;5035350;28;20043;-90
2023/06/01 08:03:14;;;;;;;10.23;4.00;;;;;;;;;;5053859;28;20040;-89
2023/06/01 08:05:44;;;;;;;9.48;2.95;;;;;;;;;;5070908;28;20485;-90
2023/06/01 08:08:10;;;;;;;7.63;3.22;;;;;;;;;;5062794;28;20068;-90
2023/06/01 08:10:39;;;;;;;6.22;2.55;;;;;;;;;;5062937;28;20036;-89
2023/06/01 08:13:07;;;;;;;9.10;2.78;;;;;;;;;;5056939;28;20110;-89
2023/06/01 08:15:36;;;;;;;6.75;2.80;;;;;;;;;;5058149;28;20045;-89
2023/06/01 08:18:02;;;;;;;6.68;2.75;;;;;;;;;;5052835;28;20041;-90
2023/06/01 08:20:29;;;;;;;10.63;2.67;;;;;;;;;;5044639;28;20404;-90
2023/06/01 08:22:56;;;;;;;7.25;2.75;;;;;;;;;;5053270;28;20092;-89
2023/06/01 08:25:23;;;;;;;7.55;3.22;;;;;;;;;;5068484;28;20159;-89
2023/06/01 08:27:49;;;;;;;7.43;2.30;;;;;;;;;;5056891;28;20045;-89
2023/06/01 08:30:15;;;;;;;5.55;2.53;;;;;;;;;;5053970;28;20045;-89
2023/06/01 08:32:42;;;;;;;5.95;2.38;;;;;;;;;;5053463;28;20041;-89
2023/06/01 08:35:08;;;;;;;7.35;2.60;;;;;;;;;;5036151;28;20052;-89
2023/06/01 08:37:35;;;;;;;5.47;2.60;;;;;;;;;;5050950;28;20561;-89
2023/06/01 08:40:02;;;;;;;9.15;2.90;;;;;;;;;;5061534;28;20047;-89
2023/06/01 08:42:35;;;;;;;6.30;2.72;;;;;;;;;;5067534;28;20114;-89
2023/06/01 08:45:05;;;;;;;5.50;2.45;;;;;;;;;;5046502;28;20456;-89
2023/06/01 08:47:31;;;;;;;6.60;2.40;;;;;;;;;;5054538;28;20049;-90
2023/06/01 08:49:59;;;;;;;6.70;2.72;;;;;;;;;;5054721;28;20044;-89
2023/06/01 08:52:28;;;;;;;7.30;2.60;;;;;;;;;;5054000;28;20044;-89
2023/06/01 08:54:55;;;;;;;5.88;2.38;;;;;;;;;;5055379;28;20084;-89
2023/06/01 08:57:21;;;;;;;5.75;2.22;;;;;;;;;;5054318;28;20041;-89
2023/06/01 08:59:47;;;;;;;5.32;2.72;;;;;;;;;;5055635;28;20037;-90
2023/06/01 09:02:15;;;;;;;5.05;2.70;;;;;;;;;;5045932;28;20119;-88
2023/06/01 09:04:44;;;;;;;8.95;2.80;;;;;;;;;;5040716;28;20482;-88
2023/06/01 09:07:10;;;;;;;5.20;2.30;;;;;;;;;;5056605;28;20040;-90
2023/06/01 09:09:36;;;;;;;5.43;2.78;;;;;;;;;;5063105;28;20044;-87
2023/06/01 09:12:23;;;;;;;5.93;2.88;;;;;;;;;;5037095;28;20052;-87
2023/06/01 09:14:50;;;;;;;6.03;2.42;;;;;;;;;;5038351;28;20052;-89
2023/06/01 09:17:23;;;;;;;4.20;2.38;;;;;;;;;;5066513;28;20040;-88
2023/06/01 09:19:56;;;;;;;5.00;2.20;;;;;;;;;;5058015;28;20117;-89
2023/06/01 09:22:22;;;;;;;5.43;2.30;;;;;;;;;;5051354;28;20044;-89
2023/06/01 09:24:58;;;;;;;5.40;2.30;;;;;;;;;;5053817;28;21358;-89
2023/06/01 09:27:25;;;;;;;5.70;2.55;;;;;;;;;;5029944;28;20042;-89
2023/06/01 09:29:59;;;;;;;7.80;3.10;;;;;;;;;;5057151;28;20489;-89
2023/06/01 09:32:26;;;;;;;6.50;2.95;;;;;;;;;;5042574;28;20566;-88
2023/06/01 09:34:53;;;;;;;8.10;2.78;;;;;;;;;;5066861;28;20072;-89
2023/06/01 09:37:19;;;;;;;4.63;2.60;;;;;;;;;;5059069;28;20049;-90
2023/06/01 09:39:45;;;;;;;7.32;2.88;;;;;;;;;;5073008;28;20052;-88
2023/06/01 09:42:11;;;;;;;9.00;3.05;;;;;;;;;;5061277;28;20106;-89
2023/06/01 09:44:39;;;;;;;9.38;2.90;;;;;;;;;;5036700;28;20037;-89
2023/06/01 09:47:15;;;;;;;8.80;2.58;;;;;;;;;;5067177;28;20048;-87
2023/06/01 09:49:45;;;;;;;7.82;2.55;;;;;;;;;;5061117;28;20043;-89
2023/06/01 09:52:14;;;;;;;6.05;2.60;;;;;;;;;;5069077;28;20033;-89
2023/06/01 09:54:42;;;;;;;5.05;2.67;;;;;;;;;;5073176;28;20041;-89
2023/06/01 09:57:09;;;;;;;8.05;3.10;;;;;;;;;;5060412;28;20479;-90
2023/06/01 09:59:43;;;;;;;8.10;3.00;;;;;;;;;;5066242;28;20079;-89
2023/06/01 10:02:13;;;;;;;9.63;3.05;;;;;;;;;;5071426;28;20036;-88
2023/06/01 10:04:40;;;;;;;8.07;3.00;;;;;;;;;;5063977;28;20048;-89
2023/06/01 10:07:07;;;;;;;9.48;2.90;;;;;;;;;;5065551;28;20389;-89
2023/06/01 10:09:34;;;;;;;7.93;3.38;;;;;;;;;;5043540;28;20033;-89
2023/06/01 10:12:01;;;;;;;9.68;3.50;;;;;;;;;;5070486;28;20125;-87
2023/06/01 10:14:27;;;;;;;9.05;3.50;;;;;;;;;;5058039;28;20444;-88
2023/06/01 10:16:53;;;;;;;12.18;4.10;;;;;;;;;;5054360;28;20032;-89
2023/06/01 10:19:21;;;;;;;10.73;3.63;;;;;;;;;;5044004;28;20041;-88
2023/06/01 10:21:47;;;;;;;12.88;3.97;;;;;;;;;;5052565;28;20037;-88
2023/06/01 10:24:15;;;;;;;11.63;3.67;;;;;;;;;;5054155;28;20048;-89
2023/06/01 10:26:44;;;;;;;12.32;3.88;;;;;;;;;;5034588;28;20131;-89
2023/06/01 10:29:12;;;;;;;11.93;3.85;;;;;;;;;;5052754;28;20448;-89
2023/06/01 10:31:39;;;;;;;12.20;3.70;;;;;;;;;;5052046;28;20043;-89
2023/06/01 10:34:06;;;;;;;12.05;3.80;;;;;;;;;;5044083;28;20057;-89
2023/06/01 10:36:51;;;;;;;10.45;3.40;;;;;;;;;;5051926;28;20052;-89
2023/06/01 10:39:33;;;;;;;16.13;3.50;;;;;;;;;;5035119;28;20094;-89
2023/06/01 10:42:18;;;;;;;17.80;3.55;;;;;;;;;;5046730;28;20128;-88
2023/06/01 10:44:44;;;;;;;11.65;3.15;;;;;;;;;;5016673;28;20556;-88
2023/06/01 10:47:13;;;;;;;13.10;3.85;;;;;;;;;;5051961;28;20040;-88
2023/06/01 10:49:51;;;;;;;10.73;3.40;;;;;;;;;;5051444;28;20044;-89
2023/06/01 10:52:28;;;;;;;14.40;3.50;;;;;;;;;;5033770;28;20051;-89
2023/06/01 10:55:17;;;;;;;11.52;3.47;;;;;;;;;;5051465;28;20048;-89
2023/06/01 10:57:44;;;;;;;30.98;4.28;;;;;;;;;;5082673;28;20112;-89
2023/06/01 11:00:14;;;;;;;13.90;3.35;;;;;;;;;;5068248;28;20041;-88
2023/06/01 11:02:48;;;;;;;14.90;3.45;;;;;;;;;;5059497;28;20154;-89
2023/06/01 11:05:33;;;;;;;10.63;3.22;;;;;;;;;;5057752;28;20457;-89
2023/06/01 11:07:59;;;;;;;10.18;3.40;;;;;;;;;;5057608;28;20512;-89
2023/06/01 11:10:43;;;;;;;11.75;3.20;;;;;;;;;;5064989;28;20133;-88
2023/06/01 11:13:17;;;;;;;12.57;3.80;;;;;;;;;;5035675;28;20043;-88
2023/06/01 11:16:03;;;;;;;9.65;3.60;;;;;;;;;;5063047;28;20037;-89
2023/06/01 11:18:42;;;;;;;12.18;4.30;;;;;;;;;;5060431;28;20094;-89
2023/06/01 11:21:21;;;;;;;9.88;3.30;;;;;;;;;;5071212;28;20174;-83
2023/06/01 11:23:47;;;;;;;10.07;3.30;;;;;;;;;;5049852;28;20134;-82
2023/06/01 11:26:17;;;;;;;11.02;3.65;;;;;;;;;;5034393;28;20048;-82
2023/06/01 11:28:44;;;;;;;10.80;3.22;;;;;;;;;;5067987;28;20162;-85
2023/06/01 11:31:11;;;;;;;9.75;3.60;;;;;;;;;;5070934;28;20044;-83
2023/06/01 11:33:39;;;;;;;10.40;3.20;;;;;;;;;;5039288;28;20522;-83
2023/06/01 11:36:05;;;;;;;18.00;3.42;;;;;;;;;;5043911;28;20152;-84
2023/06/01 11:38:35;;;;;;;12.45;4.00;;;;;;;;;;5061931;28;20131;-84
2023/06/01 11:41:02;;;;;;;18.67;4.63;;;;;;;;;;5045808;28;20037;-84
2023/06/01 11:43:29;;;;;;;13.57;4.05;;;;;;;;;;5041642;28;20069;-85
2023/06/01 11:46:02;;;;;;;12.30;3.85;;;;;;;;;;5056818;28;20494;-84
2023/06/01 11:48:28;;;;;;;15.10;3.65;;;;;;;;;;5047902;28;20486;-83
2023/06/01 11:50:55;;;;;;;23.45;4.47;;;;;;;;;;5056313;28;20040;-83
2023/06/01 11:53:24;;;;;;;31.60;4.60;;;;;;;;;;5039427;28;20041;-81
2023/06/01 11:55:50;;;;;;;12.23;3.72;;;;;;;;;;5047725;28;20048;-83
2023/06/01 11:58:22;;;;;;;16.27;4.07;;;;;;;;;;5057567;28;20047;-84
2023/06/01 12:00:49;;;;;;;11.75;3.40;;;;;;;;;;5044423;28;20045;-83
2023/06/01 12:03:16;;;;;;;11.60;3.50;;;;;;;;;;5068999;28;20040;-84
2023/06/01 12:05:49;;;;;;;10.35;3.67;;;;;;;;;;5056694;28;20044;-84
2023/06/01 12:08:23;;;;;;;11.82;3.55;;;;;;;;;;5042538;28;20405;-83
2023/06/01 12:10:50;;;;;;;13.95;4.00;;;;;;;;;;5065631;28;20037;-82
2023/06/01 12:13:20;;;;;;;46.85;5.88;;;;;;;;;;5055870;28;20040;-83
2023/06/01 12:15:47;;;;;;;17.23;4.00;;;;;;;;;;5043866;28;20051;-83
2023/06/01 12:18:13;;;;;;;18.38;4.40;;;;;;;;;;5022652;28;20044;-84
2023/06/01 12:20:41;;;;;;;10.55;3.53;;;;;;;;;;5060613;28;20040;-83
2023/06/01 12:23:12;;;;;;;69.07;8.15;;;;;;;;;;5050475;28;20049;-83
2023/06/01 12:25:48;;;;;;;12.45;3.50;;;;;;;;;;5031815;28;20041;-86
2023/06/01 12:28:15;;;;;;;25.00;5.53;;;;;;;;;;5041603;28;20584;-81
2023/06/01 12:30:41;;;;;;;48.85;11.07;;;;;;;;;;5039947;28;20037;-84
2023/06/01 12:33:07;;;;;;;192.20;11.45;;;;;;;;;;5042319;28;20041;-82
2023/06/01 12:35:33;;;;;;;12.63;3.60;;;;;;;;;;5043182;28;20538;-82
2023/06/01 12:38:06;;;;;;;11.82;3.38;;;;;;;;;;5049385;28;20053;-81
2023/06/01 12:40:33;;;;;;;9.48;3.20;;;;;;;;;;5048772;28;20112;-81
2023/06/01 12:42:59;;;;;;;319.75;18.08;;;;;;;;;;5035078;28;20514;-81
2023/06/01 12:45:25;;;;;;;15.55;3.67;;;;;;;;;;5050636;28;20392;-82
2023/06/01 12:47:52;;;;;;;10.90;3.15;;;;;;;;;;5050396;28;20079;-81
2023/06/01 12:50:18;;;;;;;8.82;3.05;;;;;;;;;;5050766;28;20413;-81
2023/06/01 12:52:44;;;;;;;8.43;3.00;;;;;;;;;;5035055;28;20044;-81
2023/06/01 12:55:10;;;;;;;12.07;3.95;;;;;;;;;;5050268;28;20044;-81
2023/06/01 12:57:37;;;;;;;9.70;3.20;;;;;;;;;;5033701;28;20033;-81
2023/06/01 13:00:05;;;;;;;7.03;3.15;;;;;;;;;;5082965;28;20037;-81
2023/06/01 13:02:33;;;;;;;11.13;3.25;;;;;;;;;;5061743;28;20079;-81
2023/06/01 13:04:59;;;;;;;7.72;3.60;;;;;;;;;;5051736;28;20072;-81
2023/06/01 13:07:25;;;;;;;6.38;3.03;;;;;;;;;;5083080;28;20489;-82
2023/06/01 13:09:51;;;;;;;7.50;2.63;;;;;;;;;;5063011;28;20045;-81
2023/06/01 13:12:18;;;;;;;6.57;2.90;;;;;;;;;;5058415;28;20039;-81
2023/06/01 13:14:45;;;;;;;6.97;3.03;;;;;;;;;;5055263;28;20446;-81
2023/06/01 13:17:11;;;;;;;7.95;2.60;;;;;;;;;;5035303;28;20124;-81
2023/06/01 13:19:37;;;;;;;5.22;2.80;;;;;;;;;;5061849;28;20051;-81
2023/06/01 13:22:03;;;;;;;7.07;2.47;;;;;;;;;;5070795;28;20439;-81
2023/06/01 13:24:30;;;;;;;8.30;2.80;;;;;;;;;;5047242;28;20103;-81
2023/06/01 13:26:56;;;;;;;7.55;2.92;;;;;;;;;;5067665;28;20055;-81
2023/06/01 13:29:22;;;;;;;12.65;3.05;;;;;;;;;;5061600;28;20049;-81
2023/06/01 13:31:48;;;;;;;9.10;3.10;;;;;;;;;;5048882;28;20080;-81
2023/06/01 13:34:15;;;;;;;5.78;3.17;;;;;;;;;;5063327;28;20055;-81
2023/06/01 13:36:42;;;;;;;7.40;2.88;;;;;;;;;;5060903;28;20060;-81
2023/06/01 13:39:10;;;;;;;9.60;3.05;;;;;;;;;;5053052;28;20041;-81
2023/06/01 13:41:36;;;;;;;9.10;3.00;;;;;;;;;;5053934;28;20477;-81
2023/06/01 13:44:02;;;;;;;7.82;3.83;;;;;;;;;;5069003;28;20040;-81
2023/06/01 13:46:28;;;;;;;9.30;3.60;;;;;;;;;;5064824;28;20045;-81
2023/06/01 13:48:54;;;;;;;10.50;3.35;;;;;;;;;;5025931;28;20052;-81
2023/06/01 13:51:22;;;;;;;9.35;3.28;;;;;;;;;;5061557;28;20045;-82
2023/06/01 13:53:48;;;;;;;9.20;3.20;;;;;;;;;;5097084;28;20128;-81
2023/06/01 13:56:14;;;;;;;12.48;3.28;;;;;;;;;;5041953;28;20039;-81
2023/06/01 13:58:40;;;;;;;11.50;3.30;;;;;;;;;;5044351;28;20076;-81
2023/06/01 14:01:06;;;;;;;9.85;3.70;;;;;;;;;;5040720;28;20051;-81
2023/06/01 14:03:32;;;;;;;8.00;3.05;;;;;;;;;;5039729;28;20063;-81
2023/06/01 14:05:59;;;;;;;9.52;3.15;;;;;;;;;;5053297;28;20486;-81
2023/06/01 14:08:25;;;;;;;7.93;2.90;;;;;;;;;;5052565;28;20580;-82
2023/06/01 14:10:51;;;;;;;8.40;3.08;;;;;;;;;;5036355;28;20547;-81
2023/06/01 14:13:17;;;;;;;11.32;3.58;;;;;;;;;;5086168;28;20049;-81
2023/06/01 14:15:43;;;;;;;7.57;2.95;;;;;;;;;;5036320;28;20037;-81
2023/06/01 14:18:09;;;;;;;8.88;3.67;;;;;;;;;;5036200;28;20128;-81
2023/06/01 14:20:37;;;;;;;9.60;3.40;;;;;;;;;;5053158;28;20063;-81
2023/06/01 14:23:03;;;;;;;8.05;3.15;;;;;;;;;;5061248;28;20044;-80
2023/06/01 14:25:29;;;;;;;9.18;3.17;;;;;;;;;;5061757;28;20045;-81
2023/06/01 14:27:55;;;;;;;9.68;2.85;;;;;;;;;;5052334;28;20044;-81
2023/06/01 14:30:21;;;;;;;13.55;3.38;;;;;;;;;;5052601;28;20048;-82
2023/06/01 14:32:48;;;;;;;10.88;3.25;;;;;;;;;;5064422;28;20068;-81
2023/06/01 14:35:15;;;;;;;9.60;3.10;;;;;;;;;;5042516;28;20037;-81
2023/06/01 14:37:42;;;;;;;10.57;3.45;;;;;;;;;;5055428;28;20052;-81
2023/06/01 14:40:09;;;;;;;7.97;2.92;;;;;;;;;;5053385;28;20056;-79